<?xml version="1.0" encoding="UTF-8" standalone="no" ?>
<gpx xmlns="http://www.topografix.com/GPX/1/1" xmlns:xsi="http://www.w3.org/2001/XMLSchema-instance" xsi:schemaLocation="http://www.topografix.com/GPX/1/1 http://www.topografix.com/GPX/1/1/gpx.xsd" version="1.1" creator="VisuGPX - https://www.visugpx.com">
  <metadata>
    <name>Saint Cierge La Serre - Serre de Gruas</name>
  </metadata>
  <trk>
    <name><![CDATA[Saint Cierge La Serre - Serre de Gruas_1]]></name>
    <trkseg>
      <trkpt lat="44.79348" lon="4.68543">
        <ele>547.1</ele>
        <time>2019-02-28T11:56:10Z</time>
      </trkpt>
      <trkpt lat="44.79344" lon="4.68558">
        <ele>547.6</ele>
        <time>2019-02-28T11:56:30Z</time>
      </trkpt>
      <trkpt lat="44.79343" lon="4.68552">
        <ele>547.5</ele>
        <time>2019-02-28T11:56:50Z</time>
      </trkpt>
      <trkpt lat="44.79305" lon="4.68488">
        <ele>554.2</ele>
        <time>2019-02-28T11:57:10Z</time>
      </trkpt>
      <trkpt lat="44.79296" lon="4.68463">
        <ele>555.3</ele>
        <time>2019-02-28T11:57:30Z</time>
      </trkpt>
      <trkpt lat="44.79295" lon="4.68439">
        <ele>556.2</ele>
        <time>2019-02-28T11:57:59Z</time>
      </trkpt>
      <trkpt lat="44.79298" lon="4.68374">
        <ele>562.8</ele>
        <time>2019-02-28T11:58:19Z</time>
      </trkpt>
      <trkpt lat="44.79309" lon="4.68358">
        <ele>562.9</ele>
        <time>2019-02-28T11:58:39Z</time>
      </trkpt>
      <trkpt lat="44.79312" lon="4.68345">
        <ele>563</ele>
        <time>2019-02-28T11:58:59Z</time>
      </trkpt>
      <trkpt lat="44.79313" lon="4.68331">
        <ele>566.4</ele>
        <time>2019-02-28T11:59:22Z</time>
      </trkpt>
      <trkpt lat="44.7931" lon="4.68328">
        <ele>566.9</ele>
        <time>2019-02-28T11:59:44Z</time>
      </trkpt>
      <trkpt lat="44.79297" lon="4.68325">
        <ele>568.5</ele>
        <time>2019-02-28T12:00:12Z</time>
      </trkpt>
      <trkpt lat="44.79279" lon="4.68319">
        <ele>570.1</ele>
        <time>2019-02-28T12:00:32Z</time>
      </trkpt>
      <trkpt lat="44.79276" lon="4.68319">
        <ele>570.3</ele>
        <time>2019-02-28T12:00:56Z</time>
      </trkpt>
      <trkpt lat="44.79269" lon="4.68333">
        <ele>570.7</ele>
        <time>2019-02-28T12:01:30Z</time>
      </trkpt>
      <trkpt lat="44.79245" lon="4.6834">
        <ele>569.8</ele>
        <time>2019-02-28T12:02:00Z</time>
      </trkpt>
      <trkpt lat="44.79158" lon="4.68376">
        <ele>560.1</ele>
        <time>2019-02-28T12:02:53Z</time>
      </trkpt>
      <trkpt lat="44.79138" lon="4.6838">
        <ele>559.3</ele>
        <time>2019-02-28T12:03:13Z</time>
      </trkpt>
      <trkpt lat="44.79124" lon="4.68378">
        <ele>559</ele>
        <time>2019-02-28T12:03:33Z</time>
      </trkpt>
      <trkpt lat="44.79096" lon="4.68383">
        <ele>557.9</ele>
        <time>2019-02-28T12:03:53Z</time>
      </trkpt>
      <trkpt lat="44.79075" lon="4.68384">
        <ele>556.1</ele>
        <time>2019-02-28T12:04:20Z</time>
      </trkpt>
      <trkpt lat="44.79085" lon="4.68389">
        <ele>557.1</ele>
        <time>2019-02-28T12:04:40Z</time>
      </trkpt>
      <trkpt lat="44.79075" lon="4.68384">
        <ele>556.1</ele>
        <time>2019-02-28T12:05:07Z</time>
      </trkpt>
      <trkpt lat="44.79068" lon="4.68381">
        <ele>556.3</ele>
        <time>2019-02-28T12:06:05Z</time>
      </trkpt>
      <trkpt lat="44.79029" lon="4.68344">
        <ele>557.9</ele>
        <time>2019-02-28T12:08:07Z</time>
      </trkpt>
      <trkpt lat="44.79004" lon="4.68338">
        <ele>559.3</ele>
        <time>2019-02-28T12:09:06Z</time>
      </trkpt>
      <trkpt lat="44.78969" lon="4.68327">
        <ele>561.8</ele>
        <time>2019-02-28T12:09:26Z</time>
      </trkpt>
      <trkpt lat="44.78957" lon="4.68313">
        <ele>562.1</ele>
        <time>2019-02-28T12:09:46Z</time>
      </trkpt>
      <trkpt lat="44.78911" lon="4.68247">
        <ele>568.5</ele>
        <time>2019-02-28T12:10:06Z</time>
      </trkpt>
      <trkpt lat="44.78895" lon="4.68232">
        <ele>571.5</ele>
        <time>2019-02-28T12:10:26Z</time>
      </trkpt>
      <trkpt lat="44.78884" lon="4.68225">
        <ele>572.5</ele>
        <time>2019-02-28T12:10:46Z</time>
      </trkpt>
      <trkpt lat="44.78891" lon="4.68195">
        <ele>574.2</ele>
        <time>2019-02-28T12:11:06Z</time>
      </trkpt>
      <trkpt lat="44.78887" lon="4.68161">
        <ele>579.8</ele>
        <time>2019-02-28T12:11:26Z</time>
      </trkpt>
      <trkpt lat="44.78855" lon="4.68017">
        <ele>587.6</ele>
        <time>2019-02-28T12:11:46Z</time>
      </trkpt>
      <trkpt lat="44.78848" lon="4.67967">
        <ele>591.7</ele>
        <time>2019-02-28T12:12:06Z</time>
      </trkpt>
      <trkpt lat="44.7884" lon="4.67934">
        <ele>591.7</ele>
        <time>2019-02-28T12:12:26Z</time>
      </trkpt>
      <trkpt lat="44.78845" lon="4.67914">
        <ele>593.2</ele>
        <time>2019-02-28T12:12:46Z</time>
      </trkpt>
      <trkpt lat="44.78859" lon="4.67889">
        <ele>596.8</ele>
        <time>2019-02-28T12:13:06Z</time>
      </trkpt>
      <trkpt lat="44.7888" lon="4.67882">
        <ele>599</ele>
        <time>2019-02-28T12:13:26Z</time>
      </trkpt>
      <trkpt lat="44.78889" lon="4.67869">
        <ele>600.3</ele>
        <time>2019-02-28T12:13:46Z</time>
      </trkpt>
      <trkpt lat="44.78892" lon="4.67821">
        <ele>607.1</ele>
        <time>2019-02-28T12:14:06Z</time>
      </trkpt>
      <trkpt lat="44.78872" lon="4.67716">
        <ele>612.6</ele>
        <time>2019-02-28T12:14:26Z</time>
      </trkpt>
      <trkpt lat="44.78875" lon="4.67652">
        <ele>617.4</ele>
        <time>2019-02-28T12:14:46Z</time>
      </trkpt>
      <trkpt lat="44.78889" lon="4.67536">
        <ele>625.6</ele>
        <time>2019-02-28T12:15:06Z</time>
      </trkpt>
      <trkpt lat="44.7888" lon="4.67506">
        <ele>624.05</ele>
        <time>2019-02-28T12:15:26Z</time>
      </trkpt>
      <trkpt lat="44.78894" lon="4.67502">
        <ele>625.6</ele>
        <time>2019-02-28T12:15:46Z</time>
      </trkpt>
      <trkpt lat="44.7891" lon="4.67499">
        <ele>629.87</ele>
        <time>2019-02-28T12:16:06Z</time>
      </trkpt>
      <trkpt lat="44.78924" lon="4.67504">
        <ele>633.77</ele>
        <time>2019-02-28T12:16:26Z</time>
      </trkpt>
      <trkpt lat="44.78938" lon="4.67507">
        <ele>634.69</ele>
        <time>2019-02-28T12:16:46Z</time>
      </trkpt>
      <trkpt lat="44.78951" lon="4.67501">
        <ele>635.61</ele>
        <time>2019-02-28T12:17:07Z</time>
      </trkpt>
      <trkpt lat="44.78966" lon="4.67503">
        <ele>645.05</ele>
        <time>2019-02-28T12:17:27Z</time>
      </trkpt>
      <trkpt lat="44.78979" lon="4.67497">
        <ele>648.13</ele>
        <time>2019-02-28T12:17:47Z</time>
      </trkpt>
      <trkpt lat="44.78992" lon="4.67502">
        <ele>654.6</ele>
        <time>2019-02-28T12:18:07Z</time>
      </trkpt>
      <trkpt lat="44.79001" lon="4.67516">
        <ele>657.61</ele>
        <time>2019-02-28T12:18:27Z</time>
      </trkpt>
      <trkpt lat="44.79009" lon="4.67536">
        <ele>656.81</ele>
        <time>2019-02-28T12:18:47Z</time>
      </trkpt>
      <trkpt lat="44.7901" lon="4.67556">
        <ele>662.81</ele>
        <time>2019-02-28T12:19:07Z</time>
      </trkpt>
      <trkpt lat="44.79012" lon="4.67575">
        <ele>667.42</ele>
        <time>2019-02-28T12:19:27Z</time>
      </trkpt>
      <trkpt lat="44.79025" lon="4.67582">
        <ele>661.71</ele>
        <time>2019-02-28T12:19:47Z</time>
      </trkpt>
      <trkpt lat="44.79038" lon="4.67586">
        <ele>667.81</ele>
        <time>2019-02-28T12:20:07Z</time>
      </trkpt>
      <trkpt lat="44.79044" lon="4.67569">
        <ele>670.94</ele>
        <time>2019-02-28T12:20:27Z</time>
      </trkpt>
      <trkpt lat="44.79048" lon="4.6755">
        <ele>674.87</ele>
        <time>2019-02-28T12:20:47Z</time>
      </trkpt>
      <trkpt lat="44.79047" lon="4.67518">
        <ele>675.61</ele>
        <time>2019-02-28T12:21:07Z</time>
      </trkpt>
      <trkpt lat="44.79054" lon="4.67497">
        <ele>682.36</ele>
        <time>2019-02-28T12:21:27Z</time>
      </trkpt>
      <trkpt lat="44.79057" lon="4.67472">
        <ele>682.55</ele>
        <time>2019-02-28T12:21:47Z</time>
      </trkpt>
      <trkpt lat="44.7906" lon="4.67449">
        <ele>685.85</ele>
        <time>2019-02-28T12:22:07Z</time>
      </trkpt>
      <trkpt lat="44.79056" lon="4.6743">
        <ele>687.8</ele>
        <time>2019-02-28T12:22:27Z</time>
      </trkpt>
      <trkpt lat="44.79061" lon="4.67411">
        <ele>687.88</ele>
        <time>2019-02-28T12:22:50Z</time>
      </trkpt>
      <trkpt lat="44.79061" lon="4.67392">
        <ele>697.02</ele>
        <time>2019-02-28T12:23:19Z</time>
      </trkpt>
      <trkpt lat="44.79066" lon="4.67373">
        <ele>704.56</ele>
        <time>2019-02-28T12:23:41Z</time>
      </trkpt>
      <trkpt lat="44.79064" lon="4.67354">
        <ele>702.92</ele>
        <time>2019-02-28T12:24:02Z</time>
      </trkpt>
      <trkpt lat="44.79055" lon="4.67337">
        <ele>707.61</ele>
        <time>2019-02-28T12:24:22Z</time>
      </trkpt>
      <trkpt lat="44.79046" lon="4.67323">
        <ele>717.93</ele>
        <time>2019-02-28T12:24:42Z</time>
      </trkpt>
      <trkpt lat="44.79044" lon="4.673">
        <ele>716.04</ele>
        <time>2019-02-28T12:25:18Z</time>
      </trkpt>
      <trkpt lat="44.79032" lon="4.67285">
        <ele>712.61</ele>
        <time>2019-02-28T12:25:38Z</time>
      </trkpt>
      <trkpt lat="44.79025" lon="4.67261">
        <ele>717.56</ele>
        <time>2019-02-28T12:26:05Z</time>
      </trkpt>
      <trkpt lat="44.79023" lon="4.67242">
        <ele>716.92</ele>
        <time>2019-02-28T12:26:25Z</time>
      </trkpt>
      <trkpt lat="44.79027" lon="4.67216">
        <ele>717.86</ele>
        <time>2019-02-28T12:26:45Z</time>
      </trkpt>
      <trkpt lat="44.79022" lon="4.67188">
        <ele>718.79</ele>
        <time>2019-02-28T12:27:05Z</time>
      </trkpt>
      <trkpt lat="44.79025" lon="4.67168">
        <ele>718.92</ele>
        <time>2019-02-28T12:27:25Z</time>
      </trkpt>
      <trkpt lat="44.79019" lon="4.67151">
        <ele>724.09</ele>
        <time>2019-02-28T12:27:45Z</time>
      </trkpt>
      <trkpt lat="44.79003" lon="4.67149">
        <ele>723.42</ele>
        <time>2019-02-28T12:28:05Z</time>
      </trkpt>
      <trkpt lat="44.79009" lon="4.67151">
        <ele>721.86</ele>
        <time>2019-02-28T12:28:25Z</time>
      </trkpt>
      <trkpt lat="44.78993" lon="4.67147">
        <ele>743.86</ele>
        <time>2019-02-28T12:28:45Z</time>
      </trkpt>
      <trkpt lat="44.79004" lon="4.67135">
        <ele>720.61</ele>
        <time>2019-02-28T12:29:05Z</time>
      </trkpt>
      <trkpt lat="44.78997" lon="4.67119">
        <ele>709.62</ele>
        <time>2019-02-28T12:29:25Z</time>
      </trkpt>
      <trkpt lat="44.78993" lon="4.67097">
        <ele>709.9</ele>
        <time>2019-02-28T12:29:45Z</time>
      </trkpt>
      <trkpt lat="44.78997" lon="4.67075">
        <ele>713.74</ele>
        <time>2019-02-28T12:30:05Z</time>
      </trkpt>
      <trkpt lat="44.78987" lon="4.67056">
        <ele>716.67</ele>
        <time>2019-02-28T12:30:25Z</time>
      </trkpt>
      <trkpt lat="44.78982" lon="4.67026">
        <ele>718.85</ele>
        <time>2019-02-28T12:30:45Z</time>
      </trkpt>
      <trkpt lat="44.78971" lon="4.66999">
        <ele>720.85</ele>
        <time>2019-02-28T12:31:05Z</time>
      </trkpt>
      <trkpt lat="44.78957" lon="4.66974">
        <ele>721.29</ele>
        <time>2019-02-28T12:31:25Z</time>
      </trkpt>
      <trkpt lat="44.78951" lon="4.66949">
        <ele>722.49</ele>
        <time>2019-02-28T12:31:45Z</time>
      </trkpt>
      <trkpt lat="44.78938" lon="4.66928">
        <ele>721.86</ele>
        <time>2019-02-28T12:32:05Z</time>
      </trkpt>
      <trkpt lat="44.78923" lon="4.66915">
        <ele>713.35</ele>
        <time>2019-02-28T12:32:25Z</time>
      </trkpt>
      <trkpt lat="44.78914" lon="4.66897">
        <ele>714.04</ele>
        <time>2019-02-28T12:32:45Z</time>
      </trkpt>
      <trkpt lat="44.78911" lon="4.66865">
        <ele>717.86</ele>
        <time>2019-02-28T12:33:05Z</time>
      </trkpt>
      <trkpt lat="44.7891" lon="4.66834">
        <ele>717.54</ele>
        <time>2019-02-28T12:33:25Z</time>
      </trkpt>
      <trkpt lat="44.78911" lon="4.66804">
        <ele>719.33</ele>
        <time>2019-02-28T12:33:51Z</time>
      </trkpt>
      <trkpt lat="44.78905" lon="4.66787">
        <ele>717.78</ele>
        <time>2019-02-28T12:34:11Z</time>
      </trkpt>
      <trkpt lat="44.78908" lon="4.6676">
        <ele>723.83</ele>
        <time>2019-02-28T12:34:31Z</time>
      </trkpt>
      <trkpt lat="44.78908" lon="4.66733">
        <ele>723.91</ele>
        <time>2019-02-28T12:34:51Z</time>
      </trkpt>
      <trkpt lat="44.78907" lon="4.66704">
        <ele>725.54</ele>
        <time>2019-02-28T12:35:11Z</time>
      </trkpt>
      <trkpt lat="44.78904" lon="4.66685">
        <ele>727.41</ele>
        <time>2019-02-28T12:35:31Z</time>
      </trkpt>
      <trkpt lat="44.7891" lon="4.66667">
        <ele>731.16</ele>
        <time>2019-02-28T12:35:51Z</time>
      </trkpt>
      <trkpt lat="44.78918" lon="4.66652">
        <ele>743.51</ele>
        <time>2019-02-28T12:36:11Z</time>
      </trkpt>
      <trkpt lat="44.7891" lon="4.66635">
        <ele>743.29</ele>
        <time>2019-02-28T12:36:31Z</time>
      </trkpt>
      <trkpt lat="44.78902" lon="4.66619">
        <ele>743.28</ele>
        <time>2019-02-28T12:36:51Z</time>
      </trkpt>
      <trkpt lat="44.78907" lon="4.666">
        <ele>751.53</ele>
        <time>2019-02-28T12:37:11Z</time>
      </trkpt>
      <trkpt lat="44.78904" lon="4.66581">
        <ele>757.85</ele>
        <time>2019-02-28T12:37:31Z</time>
      </trkpt>
      <trkpt lat="44.78902" lon="4.66561">
        <ele>749.82</ele>
        <time>2019-02-28T12:37:51Z</time>
      </trkpt>
      <trkpt lat="44.78877" lon="4.66562">
        <ele>764.07</ele>
        <time>2019-02-28T12:38:11Z</time>
      </trkpt>
      <trkpt lat="44.78862" lon="4.66546">
        <ele>764.36</ele>
        <time>2019-02-28T12:38:31Z</time>
      </trkpt>
      <trkpt lat="44.78847" lon="4.66538">
        <ele>773.47</ele>
        <time>2019-02-28T12:38:51Z</time>
      </trkpt>
      <trkpt lat="44.78839" lon="4.66521">
        <ele>780.82</ele>
        <time>2019-02-28T12:39:11Z</time>
      </trkpt>
      <trkpt lat="44.78825" lon="4.66514">
        <ele>778.97</ele>
        <time>2019-02-28T12:39:31Z</time>
      </trkpt>
      <trkpt lat="44.78811" lon="4.6651">
        <ele>773.84</ele>
        <time>2019-02-28T12:39:51Z</time>
      </trkpt>
      <trkpt lat="44.78798" lon="4.66519">
        <ele>787.78</ele>
        <time>2019-02-28T12:40:11Z</time>
      </trkpt>
      <trkpt lat="44.78793" lon="4.66501">
        <ele>780.85</ele>
        <time>2019-02-28T12:40:31Z</time>
      </trkpt>
      <trkpt lat="44.78794" lon="4.66481">
        <ele>778.11</ele>
        <time>2019-02-28T12:40:51Z</time>
      </trkpt>
      <trkpt lat="44.78776" lon="4.66457">
        <ele>776.09</ele>
        <time>2019-02-28T12:41:11Z</time>
      </trkpt>
      <trkpt lat="44.78764" lon="4.66444">
        <ele>775.86</ele>
        <time>2019-02-28T12:41:31Z</time>
      </trkpt>
      <trkpt lat="44.78748" lon="4.66425">
        <ele>775.84</ele>
        <time>2019-02-28T12:41:51Z</time>
      </trkpt>
      <trkpt lat="44.78733" lon="4.66414">
        <ele>774.88</ele>
        <time>2019-02-28T12:42:11Z</time>
      </trkpt>
      <trkpt lat="44.78717" lon="4.66393">
        <ele>778.84</ele>
        <time>2019-02-28T12:42:31Z</time>
      </trkpt>
      <trkpt lat="44.78718" lon="4.66371">
        <ele>773.83</ele>
        <time>2019-02-28T12:42:51Z</time>
      </trkpt>
      <trkpt lat="44.78712" lon="4.66339">
        <ele>770.86</ele>
        <time>2019-02-28T12:43:11Z</time>
      </trkpt>
      <trkpt lat="44.78699" lon="4.66303">
        <ele>773.53</ele>
        <time>2019-02-28T12:43:31Z</time>
      </trkpt>
      <trkpt lat="44.78693" lon="4.6627">
        <ele>773.11</ele>
        <time>2019-02-28T12:43:51Z</time>
      </trkpt>
      <trkpt lat="44.78679" lon="4.66239">
        <ele>769.61</ele>
        <time>2019-02-28T12:44:11Z</time>
      </trkpt>
      <trkpt lat="44.78667" lon="4.66216">
        <ele>770.84</ele>
        <time>2019-02-28T12:44:31Z</time>
      </trkpt>
      <trkpt lat="44.78656" lon="4.66205">
        <ele>764.09</ele>
        <time>2019-02-28T12:44:51Z</time>
      </trkpt>
      <trkpt lat="44.7864" lon="4.66194">
        <ele>760.58</ele>
        <time>2019-02-28T12:45:11Z</time>
      </trkpt>
      <trkpt lat="44.78626" lon="4.66175">
        <ele>754.84</ele>
        <time>2019-02-28T12:45:31Z</time>
      </trkpt>
      <trkpt lat="44.7861" lon="4.66165">
        <ele>751.86</ele>
        <time>2019-02-28T12:45:51Z</time>
      </trkpt>
      <trkpt lat="44.78599" lon="4.66137">
        <ele>751.9</ele>
        <time>2019-02-28T12:46:11Z</time>
      </trkpt>
      <trkpt lat="44.78585" lon="4.66119">
        <ele>751.06</ele>
        <time>2019-02-28T12:46:31Z</time>
      </trkpt>
      <trkpt lat="44.78571" lon="4.66094">
        <ele>745.15</ele>
        <time>2019-02-28T12:46:51Z</time>
      </trkpt>
      <trkpt lat="44.78556" lon="4.66075">
        <ele>738.83</ele>
        <time>2019-02-28T12:47:11Z</time>
      </trkpt>
      <trkpt lat="44.78543" lon="4.6605">
        <ele>736.09</ele>
        <time>2019-02-28T12:47:31Z</time>
      </trkpt>
      <trkpt lat="44.78529" lon="4.66028">
        <ele>733.84</ele>
        <time>2019-02-28T12:47:51Z</time>
      </trkpt>
      <trkpt lat="44.7851" lon="4.66006">
        <ele>735.81</ele>
        <time>2019-02-28T12:48:11Z</time>
      </trkpt>
      <trkpt lat="44.78495" lon="4.65994">
        <ele>731.84</ele>
        <time>2019-02-28T12:48:31Z</time>
      </trkpt>
      <trkpt lat="44.78488" lon="4.65978">
        <ele>726.11</ele>
        <time>2019-02-28T12:48:51Z</time>
      </trkpt>
      <trkpt lat="44.78476" lon="4.65952">
        <ele>733.92</ele>
        <time>2019-02-28T12:49:11Z</time>
      </trkpt>
      <trkpt lat="44.78462" lon="4.65921">
        <ele>738.58</ele>
        <time>2019-02-28T12:49:31Z</time>
      </trkpt>
      <trkpt lat="44.78454" lon="4.65903">
        <ele>739.01</ele>
        <time>2019-02-28T12:49:51Z</time>
      </trkpt>
      <trkpt lat="44.78442" lon="4.65885">
        <ele>736.84</ele>
        <time>2019-02-28T12:50:11Z</time>
      </trkpt>
      <trkpt lat="44.78428" lon="4.65862">
        <ele>738.09</ele>
        <time>2019-02-28T12:50:31Z</time>
      </trkpt>
      <trkpt lat="44.78414" lon="4.65832">
        <ele>743.08</ele>
        <time>2019-02-28T12:50:51Z</time>
      </trkpt>
      <trkpt lat="44.784" lon="4.65806">
        <ele>736.67</ele>
        <time>2019-02-28T12:51:11Z</time>
      </trkpt>
      <trkpt lat="44.78394" lon="4.65776">
        <ele>734.77</ele>
        <time>2019-02-28T12:51:31Z</time>
      </trkpt>
      <trkpt lat="44.78384" lon="4.65753">
        <ele>743.02</ele>
        <time>2019-02-28T12:51:51Z</time>
      </trkpt>
      <trkpt lat="44.78371" lon="4.65732">
        <ele>744.71</ele>
        <time>2019-02-28T12:52:11Z</time>
      </trkpt>
      <trkpt lat="44.78355" lon="4.65703">
        <ele>746.82</ele>
        <time>2019-02-28T12:52:31Z</time>
      </trkpt>
      <trkpt lat="44.78344" lon="4.65675">
        <ele>747.63</ele>
        <time>2019-02-28T12:52:51Z</time>
      </trkpt>
      <trkpt lat="44.78338" lon="4.6564">
        <ele>751.82</ele>
        <time>2019-02-28T12:53:11Z</time>
      </trkpt>
      <trkpt lat="44.78328" lon="4.65611">
        <ele>747.78</ele>
        <time>2019-02-28T12:53:31Z</time>
      </trkpt>
      <trkpt lat="44.78323" lon="4.65576">
        <ele>751.5</ele>
        <time>2019-02-28T12:53:51Z</time>
      </trkpt>
      <trkpt lat="44.78322" lon="4.65548">
        <ele>756.06</ele>
        <time>2019-02-28T12:54:11Z</time>
      </trkpt>
      <trkpt lat="44.78326" lon="4.65528">
        <ele>759.44</ele>
        <time>2019-02-28T12:54:31Z</time>
      </trkpt>
      <trkpt lat="44.78325" lon="4.65508">
        <ele>760.33</ele>
        <time>2019-02-28T12:54:51Z</time>
      </trkpt>
      <trkpt lat="44.78332" lon="4.65491">
        <ele>761.58</ele>
        <time>2019-02-28T12:55:11Z</time>
      </trkpt>
      <trkpt lat="44.78335" lon="4.65472">
        <ele>764.01</ele>
        <time>2019-02-28T12:55:31Z</time>
      </trkpt>
      <trkpt lat="44.78348" lon="4.65456">
        <ele>768.81</ele>
        <time>2019-02-28T12:55:51Z</time>
      </trkpt>
      <trkpt lat="44.7836" lon="4.65435">
        <ele>778.68</ele>
        <time>2019-02-28T12:56:11Z</time>
      </trkpt>
      <trkpt lat="44.78354" lon="4.65417">
        <ele>779.83</ele>
        <time>2019-02-28T12:56:31Z</time>
      </trkpt>
      <trkpt lat="44.7834" lon="4.65392">
        <ele>784.07</ele>
        <time>2019-02-28T12:56:51Z</time>
      </trkpt>
      <trkpt lat="44.78327" lon="4.65384">
        <ele>778.08</ele>
        <time>2019-02-28T12:57:11Z</time>
      </trkpt>
      <trkpt lat="44.78309" lon="4.65353">
        <ele>785.76</ele>
        <time>2019-02-28T12:57:31Z</time>
      </trkpt>
      <trkpt lat="44.78289" lon="4.65329">
        <ele>782.82</ele>
        <time>2019-02-28T12:57:51Z</time>
      </trkpt>
      <trkpt lat="44.7827" lon="4.65297">
        <ele>782.81</ele>
        <time>2019-02-28T12:58:11Z</time>
      </trkpt>
      <trkpt lat="44.78253" lon="4.65268">
        <ele>783.5</ele>
        <time>2019-02-28T12:58:31Z</time>
      </trkpt>
      <trkpt lat="44.78237" lon="4.65243">
        <ele>787.59</ele>
        <time>2019-02-28T12:58:51Z</time>
      </trkpt>
      <trkpt lat="44.78221" lon="4.65216">
        <ele>791.85</ele>
        <time>2019-02-28T12:59:11Z</time>
      </trkpt>
      <trkpt lat="44.78206" lon="4.65197">
        <ele>798.51</ele>
        <time>2019-02-28T12:59:31Z</time>
      </trkpt>
      <trkpt lat="44.78188" lon="4.65176">
        <ele>799.06</ele>
        <time>2019-02-28T12:59:51Z</time>
      </trkpt>
      <trkpt lat="44.78171" lon="4.65152">
        <ele>802.57</ele>
        <time>2019-02-28T13:00:11Z</time>
      </trkpt>
      <trkpt lat="44.78152" lon="4.6513">
        <ele>799.07</ele>
        <time>2019-02-28T13:00:31Z</time>
      </trkpt>
      <trkpt lat="44.78139" lon="4.65105">
        <ele>797.2</ele>
        <time>2019-02-28T13:00:51Z</time>
      </trkpt>
      <trkpt lat="44.78124" lon="4.6508">
        <ele>795.07</ele>
        <time>2019-02-28T13:01:11Z</time>
      </trkpt>
      <trkpt lat="44.78112" lon="4.65045">
        <ele>794.01</ele>
        <time>2019-02-28T13:01:31Z</time>
      </trkpt>
      <trkpt lat="44.78099" lon="4.65015">
        <ele>795.8</ele>
        <time>2019-02-28T13:01:51Z</time>
      </trkpt>
      <trkpt lat="44.78082" lon="4.64986">
        <ele>793.53</ele>
        <time>2019-02-28T13:02:11Z</time>
      </trkpt>
      <trkpt lat="44.78065" lon="4.64961">
        <ele>797.82</ele>
        <time>2019-02-28T13:02:32Z</time>
      </trkpt>
      <trkpt lat="44.78049" lon="4.64943">
        <ele>796.11</ele>
        <time>2019-02-28T13:02:52Z</time>
      </trkpt>
      <trkpt lat="44.78028" lon="4.64921">
        <ele>799.69</ele>
        <time>2019-02-28T13:03:12Z</time>
      </trkpt>
      <trkpt lat="44.78004" lon="4.64903">
        <ele>804.48</ele>
        <time>2019-02-28T13:03:32Z</time>
      </trkpt>
      <trkpt lat="44.77989" lon="4.64885">
        <ele>808.82</ele>
        <time>2019-02-28T13:03:52Z</time>
      </trkpt>
      <trkpt lat="44.77974" lon="4.64871">
        <ele>807.75</ele>
        <time>2019-02-28T13:04:12Z</time>
      </trkpt>
      <trkpt lat="44.77952" lon="4.64858">
        <ele>809.02</ele>
        <time>2019-02-28T13:05:09Z</time>
      </trkpt>
      <trkpt lat="44.77942" lon="4.64845">
        <ele>803.68</ele>
        <time>2019-02-28T13:05:29Z</time>
      </trkpt>
      <trkpt lat="44.77925" lon="4.64837">
        <ele>808.58</ele>
        <time>2019-02-28T13:05:49Z</time>
      </trkpt>
      <trkpt lat="44.7791" lon="4.64817">
        <ele>810.55</ele>
        <time>2019-02-28T13:06:09Z</time>
      </trkpt>
      <trkpt lat="44.77895" lon="4.64788">
        <ele>812.58</ele>
        <time>2019-02-28T13:06:29Z</time>
      </trkpt>
      <trkpt lat="44.7788" lon="4.64761">
        <ele>807.08</ele>
        <time>2019-02-28T13:06:49Z</time>
      </trkpt>
      <trkpt lat="44.77873" lon="4.64723">
        <ele>805.32</ele>
        <time>2019-02-28T13:07:09Z</time>
      </trkpt>
      <trkpt lat="44.77859" lon="4.64692">
        <ele>808.06</ele>
        <time>2019-02-28T13:07:29Z</time>
      </trkpt>
      <trkpt lat="44.77845" lon="4.64657">
        <ele>811.81</ele>
        <time>2019-02-28T13:07:49Z</time>
      </trkpt>
      <trkpt lat="44.77836" lon="4.64626">
        <ele>809.57</ele>
        <time>2019-02-28T13:08:23Z</time>
      </trkpt>
      <trkpt lat="44.77825" lon="4.64601">
        <ele>807.89</ele>
        <time>2019-02-28T13:08:43Z</time>
      </trkpt>
      <trkpt lat="44.77815" lon="4.64571">
        <ele>810.75</ele>
        <time>2019-02-28T13:09:03Z</time>
      </trkpt>
      <trkpt lat="44.77806" lon="4.64541">
        <ele>812.75</ele>
        <time>2019-02-28T13:09:23Z</time>
      </trkpt>
      <trkpt lat="44.77793" lon="4.64512">
        <ele>810.12</ele>
        <time>2019-02-28T13:09:43Z</time>
      </trkpt>
      <trkpt lat="44.77778" lon="4.64477">
        <ele>807.74</ele>
        <time>2019-02-28T13:10:03Z</time>
      </trkpt>
      <trkpt lat="44.77765" lon="4.64454">
        <ele>804.57</ele>
        <time>2019-02-28T13:10:23Z</time>
      </trkpt>
      <trkpt lat="44.77758" lon="4.64423">
        <ele>805.32</ele>
        <time>2019-02-28T13:10:43Z</time>
      </trkpt>
      <trkpt lat="44.77749" lon="4.64393">
        <ele>801.8</ele>
        <time>2019-02-28T09:34:15Z</time>
      </trkpt>
      <trkpt lat="44.77728" lon="4.64382">
        <ele>796.89</ele>
        <time>2019-02-28T09:34:15Z</time>
      </trkpt>
      <trkpt lat="44.77708" lon="4.64383">
        <ele>790.5</ele>
        <time>2019-02-28T09:35:09Z</time>
      </trkpt>
      <trkpt lat="44.77693" lon="4.64362">
        <ele>796.49</ele>
        <time>2019-02-28T09:35:29Z</time>
      </trkpt>
      <trkpt lat="44.77671" lon="4.64342">
        <ele>796.53</ele>
        <time>2019-02-28T09:35:49Z</time>
      </trkpt>
      <trkpt lat="44.77654" lon="4.64322">
        <ele>795.05</ele>
        <time>2019-02-28T09:36:09Z</time>
      </trkpt>
      <trkpt lat="44.77634" lon="4.64299">
        <ele>797.71</ele>
        <time>2019-02-28T09:36:29Z</time>
      </trkpt>
      <trkpt lat="44.77615" lon="4.64283">
        <ele>789.99</ele>
        <time>2019-02-28T09:36:49Z</time>
      </trkpt>
      <trkpt lat="44.77594" lon="4.6426">
        <ele>793.99</ele>
        <time>2019-02-28T09:37:09Z</time>
      </trkpt>
      <trkpt lat="44.77573" lon="4.64236">
        <ele>789.18</ele>
        <time>2019-02-28T09:37:29Z</time>
      </trkpt>
      <trkpt lat="44.77552" lon="4.64212">
        <ele>788.12</ele>
        <time>2019-02-28T09:37:49Z</time>
      </trkpt>
      <trkpt lat="44.77537" lon="4.64185">
        <ele>785.37</ele>
        <time>2019-02-28T09:38:09Z</time>
      </trkpt>
      <trkpt lat="44.77521" lon="4.64156">
        <ele>788.8</ele>
        <time>2019-02-28T09:38:29Z</time>
      </trkpt>
      <trkpt lat="44.77502" lon="4.6413">
        <ele>782.88</ele>
        <time>2019-02-28T09:38:49Z</time>
      </trkpt>
      <trkpt lat="44.77482" lon="4.64105">
        <ele>776.62</ele>
        <time>2019-02-28T09:39:09Z</time>
      </trkpt>
      <trkpt lat="44.7746" lon="4.64088">
        <ele>779.04</ele>
        <time>2019-02-28T09:39:29Z</time>
      </trkpt>
      <trkpt lat="44.77437" lon="4.64071">
        <ele>775.8</ele>
        <time>2019-02-28T09:39:49Z</time>
      </trkpt>
      <trkpt lat="44.77424" lon="4.64042">
        <ele>776.8</ele>
        <time>2019-02-28T09:40:09Z</time>
      </trkpt>
      <trkpt lat="44.77411" lon="4.6402">
        <ele>774.86</ele>
        <time>2019-02-28T09:40:29Z</time>
      </trkpt>
      <trkpt lat="44.77399" lon="4.63998">
        <ele>781.82</ele>
        <time>2019-02-28T09:40:49Z</time>
      </trkpt>
      <trkpt lat="44.77387" lon="4.63976">
        <ele>783.06</ele>
        <time>2019-02-28T09:41:09Z</time>
      </trkpt>
      <trkpt lat="44.77378" lon="4.63955">
        <ele>787.74</ele>
        <time>2019-02-28T09:41:29Z</time>
      </trkpt>
      <trkpt lat="44.77366" lon="4.63937">
        <ele>787.78</ele>
        <time>2019-02-28T09:41:49Z</time>
      </trkpt>
      <trkpt lat="44.77358" lon="4.63918">
        <ele>789.5</ele>
        <time>2019-02-28T09:42:09Z</time>
      </trkpt>
      <trkpt lat="44.77341" lon="4.63899">
        <ele>785.74</ele>
        <time>2019-02-28T09:42:29Z</time>
      </trkpt>
      <trkpt lat="44.77331" lon="4.63875">
        <ele>790.23</ele>
        <time>2019-02-28T09:42:49Z</time>
      </trkpt>
      <trkpt lat="44.77313" lon="4.63851">
        <ele>789.8</ele>
        <time>2019-02-28T09:43:09Z</time>
      </trkpt>
      <trkpt lat="44.77292" lon="4.63836">
        <ele>791.55</ele>
        <time>2019-02-28T09:43:29Z</time>
      </trkpt>
      <trkpt lat="44.7727" lon="4.63826">
        <ele>788.97</ele>
        <time>2019-02-28T09:44:05Z</time>
      </trkpt>
      <trkpt lat="44.77252" lon="4.63801">
        <ele>789.92</ele>
        <time>2019-02-28T09:44:25Z</time>
      </trkpt>
      <trkpt lat="44.77247" lon="4.63772">
        <ele>787.81</ele>
        <time>2019-02-28T09:44:45Z</time>
      </trkpt>
      <trkpt lat="44.77241" lon="4.63745">
        <ele>784.8</ele>
        <time>2019-02-28T09:45:05Z</time>
      </trkpt>
      <trkpt lat="44.77225" lon="4.63719">
        <ele>787.73</ele>
        <time>2019-02-28T09:45:25Z</time>
      </trkpt>
      <trkpt lat="44.77213" lon="4.63688">
        <ele>788.6</ele>
        <time>2019-02-28T09:45:45Z</time>
      </trkpt>
      <trkpt lat="44.77203" lon="4.63659">
        <ele>789.81</ele>
        <time>2019-02-28T09:46:05Z</time>
      </trkpt>
      <trkpt lat="44.77194" lon="4.63629">
        <ele>787.86</ele>
        <time>2019-02-28T09:46:25Z</time>
      </trkpt>
      <trkpt lat="44.77187" lon="4.63597">
        <ele>788.98</ele>
        <time>2019-02-28T09:46:45Z</time>
      </trkpt>
      <trkpt lat="44.77181" lon="4.63566">
        <ele>792.53</ele>
        <time>2019-02-28T09:47:05Z</time>
      </trkpt>
      <trkpt lat="44.77175" lon="4.63536">
        <ele>789.12</ele>
        <time>2019-02-28T09:47:25Z</time>
      </trkpt>
      <trkpt lat="44.77168" lon="4.635">
        <ele>789.74</ele>
        <time>2019-02-28T09:47:45Z</time>
      </trkpt>
      <trkpt lat="44.77165" lon="4.63476">
        <ele>784.8</ele>
        <time>2019-02-28T09:48:05Z</time>
      </trkpt>
      <trkpt lat="44.77167" lon="4.63444">
        <ele>789.54</ele>
        <time>2019-02-28T09:48:25Z</time>
      </trkpt>
      <trkpt lat="44.77168" lon="4.63415">
        <ele>794.81</ele>
        <time>2019-02-28T09:48:45Z</time>
      </trkpt>
      <trkpt lat="44.77164" lon="4.6338">
        <ele>794.74</ele>
        <time>2019-02-28T09:49:05Z</time>
      </trkpt>
      <trkpt lat="44.77156" lon="4.63354">
        <ele>798.03</ele>
        <time>2019-02-28T09:49:25Z</time>
      </trkpt>
      <trkpt lat="44.77143" lon="4.63326">
        <ele>802.29</ele>
        <time>2019-02-28T09:49:45Z</time>
      </trkpt>
      <trkpt lat="44.77128" lon="4.63301">
        <ele>801.84</ele>
        <time>2019-02-28T09:50:05Z</time>
      </trkpt>
      <trkpt lat="44.77105" lon="4.63292">
        <ele>799.27</ele>
        <time>2019-02-28T09:50:25Z</time>
      </trkpt>
      <trkpt lat="44.7709" lon="4.63297">
        <ele>800.05</ele>
        <time>2019-02-28T09:50:45Z</time>
      </trkpt>
      <trkpt lat="44.77074" lon="4.63295">
        <ele>794.79</ele>
        <time>2019-02-28T09:51:05Z</time>
      </trkpt>
      <trkpt lat="44.77044" lon="4.63289">
        <ele>797.53</ele>
        <time>2019-02-28T09:51:25Z</time>
      </trkpt>
      <trkpt lat="44.77022" lon="4.63277">
        <ele>796.02</ele>
        <time>2019-02-28T09:51:45Z</time>
      </trkpt>
      <trkpt lat="44.77007" lon="4.63263">
        <ele>797.79</ele>
        <time>2019-02-28T09:52:05Z</time>
      </trkpt>
      <trkpt lat="44.76983" lon="4.63249">
        <ele>798.05</ele>
        <time>2019-02-28T09:52:25Z</time>
      </trkpt>
      <trkpt lat="44.76964" lon="4.63231">
        <ele>802.46</ele>
        <time>2019-02-28T09:52:45Z</time>
      </trkpt>
      <trkpt lat="44.76942" lon="4.63227">
        <ele>798.3</ele>
        <time>2019-02-28T09:53:05Z</time>
      </trkpt>
      <trkpt lat="44.7692" lon="4.63207">
        <ele>792.66</ele>
        <time>2019-02-28T09:53:25Z</time>
      </trkpt>
      <trkpt lat="44.7691" lon="4.63192">
        <ele>791.12</ele>
        <time>2019-02-28T09:53:45Z</time>
      </trkpt>
      <trkpt lat="44.76893" lon="4.63171">
        <ele>784.81</ele>
        <time>2019-02-28T09:54:05Z</time>
      </trkpt>
      <trkpt lat="44.76876" lon="4.63149">
        <ele>783.13</ele>
        <time>2019-02-28T09:54:25Z</time>
      </trkpt>
      <trkpt lat="44.7686" lon="4.63134">
        <ele>779.05</ele>
        <time>2019-02-28T09:54:45Z</time>
      </trkpt>
      <trkpt lat="44.7684" lon="4.63117">
        <ele>777.78</ele>
        <time>2019-02-28T09:55:05Z</time>
      </trkpt>
      <trkpt lat="44.76825" lon="4.63096">
        <ele>777.84</ele>
        <time>2019-02-28T09:55:25Z</time>
      </trkpt>
      <trkpt lat="44.76808" lon="4.63069">
        <ele>774.91</ele>
        <time>2019-02-28T09:55:45Z</time>
      </trkpt>
      <trkpt lat="44.76799" lon="4.63045">
        <ele>767.16</ele>
        <time>2019-02-28T09:56:05Z</time>
      </trkpt>
      <trkpt lat="44.76791" lon="4.63022">
        <ele>759.8</ele>
        <time>2019-02-28T09:56:25Z</time>
      </trkpt>
      <trkpt lat="44.76788" lon="4.62989">
        <ele>763.47</ele>
        <time>2019-02-28T09:56:45Z</time>
      </trkpt>
      <trkpt lat="44.76779" lon="4.62963">
        <ele>758.85</ele>
        <time>2019-02-28T09:57:05Z</time>
      </trkpt>
      <trkpt lat="44.76767" lon="4.62934">
        <ele>758.84</ele>
        <time>2019-02-28T09:57:25Z</time>
      </trkpt>
      <trkpt lat="44.76754" lon="4.62912">
        <ele>756.97</ele>
        <time>2019-02-28T09:57:45Z</time>
      </trkpt>
      <trkpt lat="44.76743" lon="4.629">
        <ele>756.29</ele>
        <time>2019-02-28T09:58:05Z</time>
      </trkpt>
      <trkpt lat="44.76728" lon="4.62883">
        <ele>752.83</ele>
        <time>2019-02-28T09:58:25Z</time>
      </trkpt>
      <trkpt lat="44.76713" lon="4.62866">
        <ele>751.82</ele>
        <time>2019-02-28T09:58:45Z</time>
      </trkpt>
      <trkpt lat="44.76701" lon="4.6285">
        <ele>750.8</ele>
        <time>2019-02-28T09:59:05Z</time>
      </trkpt>
      <trkpt lat="44.76687" lon="4.62847">
        <ele>746.68</ele>
        <time>2019-02-28T09:59:25Z</time>
      </trkpt>
      <trkpt lat="44.76666" lon="4.62846">
        <ele>744.77</ele>
        <time>2019-02-28T09:59:45Z</time>
      </trkpt>
      <trkpt lat="44.76661" lon="4.62827">
        <ele>738.1</ele>
        <time>2019-02-28T10:00:05Z</time>
      </trkpt>
      <trkpt lat="44.76675" lon="4.62803">
        <ele>735.77</ele>
        <time>2019-02-28T10:00:25Z</time>
      </trkpt>
      <trkpt lat="44.76656" lon="4.62796">
        <ele>734.59</ele>
        <time>2019-02-28T10:00:45Z</time>
      </trkpt>
      <trkpt lat="44.76633" lon="4.62803">
        <ele>726.1</ele>
        <time>2019-02-28T10:01:05Z</time>
      </trkpt>
      <trkpt lat="44.76613" lon="4.62799">
        <ele>724.78</ele>
        <time>2019-02-28T10:01:25Z</time>
      </trkpt>
      <trkpt lat="44.76622" lon="4.6277">
        <ele>718.98</ele>
        <time>2019-02-28T10:01:45Z</time>
      </trkpt>
      <trkpt lat="44.76634" lon="4.62748">
        <ele>712.75</ele>
        <time>2019-02-28T10:02:05Z</time>
      </trkpt>
      <trkpt lat="44.76643" lon="4.6273">
        <ele>708.53</ele>
        <time>2019-02-28T10:02:25Z</time>
      </trkpt>
      <trkpt lat="44.76703" lon="4.62637">
        <ele>692.6</ele>
        <time>2019-02-28T10:05:46Z</time>
      </trkpt>
      <trkpt lat="44.76716" lon="4.62608">
        <ele>690</ele>
        <time>2019-02-28T10:06:06Z</time>
      </trkpt>
      <trkpt lat="44.76698" lon="4.62586">
        <ele>689</ele>
        <time>2019-02-28T10:06:26Z</time>
      </trkpt>
      <trkpt lat="44.76699" lon="4.62539">
        <ele>677</ele>
        <time>2019-02-28T10:06:46Z</time>
      </trkpt>
      <trkpt lat="44.76708" lon="4.62495">
        <ele>668</ele>
        <time>2019-02-28T10:07:17Z</time>
      </trkpt>
      <trkpt lat="44.76716" lon="4.62434">
        <ele>666</ele>
        <time>2019-02-28T10:07:37Z</time>
      </trkpt>
      <trkpt lat="44.76733" lon="4.62356">
        <ele>657</ele>
        <time>2019-02-28T10:07:57Z</time>
      </trkpt>
      <trkpt lat="44.76749" lon="4.62321">
        <ele>652</ele>
        <time>2019-02-28T10:08:17Z</time>
      </trkpt>
      <trkpt lat="44.76744" lon="4.6222">
        <ele>633.5</ele>
        <time>2019-02-28T10:08:37Z</time>
      </trkpt>
      <trkpt lat="44.76711" lon="4.62266">
        <ele>641</ele>
        <time>2019-02-28T10:08:57Z</time>
      </trkpt>
      <trkpt lat="44.7669" lon="4.62304">
        <ele>643</ele>
        <time>2019-02-28T10:09:17Z</time>
      </trkpt>
      <trkpt lat="44.76665" lon="4.62338">
        <ele>644</ele>
        <time>2019-02-28T10:09:37Z</time>
      </trkpt>
      <trkpt lat="44.76647" lon="4.62396">
        <ele>644</ele>
        <time>2019-02-28T10:09:57Z</time>
      </trkpt>
      <trkpt lat="44.76644" lon="4.62444">
        <ele>653</ele>
        <time>2019-02-28T10:10:17Z</time>
      </trkpt>
      <trkpt lat="44.76632" lon="4.62481">
        <ele>653.8</ele>
        <time>2019-02-28T10:10:37Z</time>
      </trkpt>
      <trkpt lat="44.76611" lon="4.62529">
        <ele>663.1</ele>
        <time>2019-02-28T10:10:57Z</time>
      </trkpt>
      <trkpt lat="44.76607" lon="4.62578">
        <ele>667.7</ele>
        <time>2019-02-28T10:11:17Z</time>
      </trkpt>
      <trkpt lat="44.76578" lon="4.62601">
        <ele>669.3</ele>
        <time>2019-02-28T10:11:37Z</time>
      </trkpt>
      <trkpt lat="44.76514" lon="4.62651">
        <ele>670</ele>
        <time>2019-02-28T10:11:57Z</time>
      </trkpt>
      <trkpt lat="44.76491" lon="4.62697">
        <ele>666.2</ele>
        <time>2019-02-28T10:12:17Z</time>
      </trkpt>
      <trkpt lat="44.76477" lon="4.62746">
        <ele>669.3</ele>
        <time>2019-02-28T10:12:37Z</time>
      </trkpt>
      <trkpt lat="44.76494" lon="4.62799">
        <ele>675.4</ele>
        <time>2019-02-28T10:12:57Z</time>
      </trkpt>
      <trkpt lat="44.76492" lon="4.62817">
        <ele>678.7</ele>
        <time>2019-02-28T10:13:17Z</time>
      </trkpt>
      <trkpt lat="44.76478" lon="4.62856">
        <ele>683</ele>
        <time>2019-02-28T10:13:37Z</time>
      </trkpt>
      <trkpt lat="44.76458" lon="4.62887">
        <ele>682.1</ele>
        <time>2019-02-28T10:13:57Z</time>
      </trkpt>
      <trkpt lat="44.7643" lon="4.62945">
        <ele>685.3</ele>
        <time>2019-02-28T10:14:17Z</time>
      </trkpt>
      <trkpt lat="44.76428" lon="4.62966">
        <ele>685.6</ele>
        <time>2019-02-28T10:14:37Z</time>
      </trkpt>
      <trkpt lat="44.7643" lon="4.62978">
        <ele>684.6</ele>
        <time>2019-02-28T10:14:57Z</time>
      </trkpt>
      <trkpt lat="44.76453" lon="4.63041">
        <ele>689.6</ele>
        <time>2019-02-28T10:15:17Z</time>
      </trkpt>
      <trkpt lat="44.76468" lon="4.63103">
        <ele>693.6</ele>
        <time>2019-02-28T10:15:41Z</time>
      </trkpt>
      <trkpt lat="44.76471" lon="4.63119">
        <ele>694.2</ele>
        <time>2019-02-28T10:16:01Z</time>
      </trkpt>
      <trkpt lat="44.7647" lon="4.63147">
        <ele>695.4</ele>
        <time>2019-02-28T10:16:21Z</time>
      </trkpt>
      <trkpt lat="44.76467" lon="4.63157">
        <ele>695.1</ele>
        <time>2019-02-28T10:16:41Z</time>
      </trkpt>
      <trkpt lat="44.76439" lon="4.63211">
        <ele>701.3</ele>
        <time>2019-02-28T10:17:01Z</time>
      </trkpt>
      <trkpt lat="44.76421" lon="4.63235">
        <ele>701.4</ele>
        <time>2019-02-28T10:17:21Z</time>
      </trkpt>
      <trkpt lat="44.76374" lon="4.63316">
        <ele>700.2</ele>
        <time>2019-02-28T10:17:41Z</time>
      </trkpt>
      <trkpt lat="44.76366" lon="4.63344">
        <ele>716</ele>
        <time>2019-02-28T10:18:01Z</time>
      </trkpt>
      <trkpt lat="44.76356" lon="4.63362">
        <ele>716.7</ele>
        <time>2019-02-28T10:18:21Z</time>
      </trkpt>
      <trkpt lat="44.76345" lon="4.63374">
        <ele>717.7</ele>
        <time>2019-02-28T10:18:41Z</time>
      </trkpt>
      <trkpt lat="44.76336" lon="4.6338">
        <ele>718.2</ele>
        <time>2019-02-28T10:19:01Z</time>
      </trkpt>
      <trkpt lat="44.76335" lon="4.63384">
        <ele>718.9</ele>
        <time>2019-02-28T10:19:21Z</time>
      </trkpt>
      <trkpt lat="44.76305" lon="4.63395">
        <ele>704.3</ele>
        <time>2019-02-28T10:19:41Z</time>
      </trkpt>
      <trkpt lat="44.76197" lon="4.63482">
        <ele>707.6</ele>
        <time>2019-02-28T10:20:01Z</time>
      </trkpt>
      <trkpt lat="44.76183" lon="4.63515">
        <ele>710.4</ele>
        <time>2019-02-28T10:20:21Z</time>
      </trkpt>
      <trkpt lat="44.76176" lon="4.63533">
        <ele>709.8</ele>
        <time>2019-02-28T10:20:41Z</time>
      </trkpt>
      <trkpt lat="44.76186" lon="4.63546">
        <ele>709.9</ele>
        <time>2019-02-28T10:21:01Z</time>
      </trkpt>
      <trkpt lat="44.76207" lon="4.63561">
        <ele>711.7</ele>
        <time>2019-02-28T10:21:21Z</time>
      </trkpt>
      <trkpt lat="44.7624" lon="4.63572">
        <ele>716.7</ele>
        <time>2019-02-28T10:21:41Z</time>
      </trkpt>
      <trkpt lat="44.76273" lon="4.63593">
        <ele>722.8</ele>
        <time>2019-02-28T10:22:01Z</time>
      </trkpt>
      <trkpt lat="44.76286" lon="4.63605">
        <ele>724.2</ele>
        <time>2019-02-28T10:22:22Z</time>
      </trkpt>
      <trkpt lat="44.76292" lon="4.6362">
        <ele>723.7</ele>
        <time>2019-02-28T10:23:07Z</time>
      </trkpt>
      <trkpt lat="44.76351" lon="4.63695">
        <ele>736.9</ele>
        <time>2019-02-28T10:23:27Z</time>
      </trkpt>
      <trkpt lat="44.76373" lon="4.6376">
        <ele>723.3</ele>
        <time>2019-02-28T10:23:47Z</time>
      </trkpt>
      <trkpt lat="44.76408" lon="4.63804">
        <ele>724.4</ele>
        <time>2019-02-28T10:24:07Z</time>
      </trkpt>
      <trkpt lat="44.76459" lon="4.63839">
        <ele>728.6</ele>
        <time>2019-02-28T10:24:27Z</time>
      </trkpt>
      <trkpt lat="44.76498" lon="4.63859">
        <ele>731.1</ele>
        <time>2019-02-28T10:24:47Z</time>
      </trkpt>
      <trkpt lat="44.76506" lon="4.63854">
        <ele>731.9</ele>
        <time>2019-02-28T10:25:07Z</time>
      </trkpt>
      <trkpt lat="44.7651" lon="4.63841">
        <ele>734.8</ele>
        <time>2019-02-28T10:25:27Z</time>
      </trkpt>
      <trkpt lat="44.76513" lon="4.63839">
        <ele>734.3</ele>
        <time>2019-02-28T10:25:47Z</time>
      </trkpt>
      <trkpt lat="44.76569" lon="4.63762">
        <ele>753.3</ele>
        <time>2019-02-28T10:26:07Z</time>
      </trkpt>
      <trkpt lat="44.76633" lon="4.63649">
        <ele>781.1</ele>
        <time>2019-02-28T10:26:29Z</time>
      </trkpt>
      <trkpt lat="44.76674" lon="4.63585">
        <ele>779.7</ele>
        <time>2019-02-28T10:26:49Z</time>
      </trkpt>
      <trkpt lat="44.76742" lon="4.63523">
        <ele>788.3</ele>
        <time>2019-02-28T10:27:09Z</time>
      </trkpt>
      <trkpt lat="44.768" lon="4.63523">
        <ele>778.2</ele>
        <time>2019-02-28T10:27:29Z</time>
      </trkpt>
      <trkpt lat="44.76854" lon="4.63568">
        <ele>772.7</ele>
        <time>2019-02-28T10:27:49Z</time>
      </trkpt>
      <trkpt lat="44.76962" lon="4.63633">
        <ele>776.1</ele>
        <time>2019-02-28T10:28:09Z</time>
      </trkpt>
      <trkpt lat="44.77016" lon="4.63684">
        <ele>780</ele>
        <time>2019-02-28T10:28:29Z</time>
      </trkpt>
      <trkpt lat="44.7705" lon="4.63762">
        <ele>770.5</ele>
        <time>2019-02-28T10:28:49Z</time>
      </trkpt>
      <trkpt lat="44.7708" lon="4.63865">
        <ele>759.5</ele>
        <time>2019-02-28T10:29:09Z</time>
      </trkpt>
      <trkpt lat="44.77111" lon="4.63893">
        <ele>773.4</ele>
        <time>2019-02-28T10:29:42Z</time>
      </trkpt>
      <trkpt lat="44.77117" lon="4.63892">
        <ele>782.02</ele>
        <time>2019-02-28T10:30:03Z</time>
      </trkpt>
      <trkpt lat="44.77117" lon="4.63892">
        <ele>782.02</ele>
        <time>2019-02-28T10:30:23Z</time>
      </trkpt>
      <trkpt lat="44.77127" lon="4.63905">
        <ele>767.8</ele>
        <time>2019-02-28T10:30:54Z</time>
      </trkpt>
      <trkpt lat="44.77143" lon="4.63912">
        <ele>765.82</ele>
        <time>2019-02-28T10:31:44Z</time>
      </trkpt>
      <trkpt lat="44.7716" lon="4.63921">
        <ele>761.67</ele>
        <time>2019-02-28T10:32:08Z</time>
      </trkpt>
      <trkpt lat="44.77186" lon="4.63926">
        <ele>768.92</ele>
        <time>2019-02-28T10:32:28Z</time>
      </trkpt>
      <trkpt lat="44.77206" lon="4.63934">
        <ele>765.07</ele>
        <time>2019-02-28T10:32:48Z</time>
      </trkpt>
      <trkpt lat="44.77228" lon="4.63945">
        <ele>764.87</ele>
        <time>2019-02-28T10:33:08Z</time>
      </trkpt>
      <trkpt lat="44.7725" lon="4.63957">
        <ele>764.8</ele>
        <time>2019-02-28T10:33:28Z</time>
      </trkpt>
      <trkpt lat="44.77271" lon="4.63967">
        <ele>765.8</ele>
        <time>2019-02-28T10:33:48Z</time>
      </trkpt>
      <trkpt lat="44.77293" lon="4.63979">
        <ele>764.86</ele>
        <time>2019-02-28T10:34:08Z</time>
      </trkpt>
      <trkpt lat="44.77316" lon="4.63995">
        <ele>765.8</ele>
        <time>2019-02-28T10:34:28Z</time>
      </trkpt>
      <trkpt lat="44.7734" lon="4.64008">
        <ele>766.8</ele>
        <time>2019-02-28T10:34:48Z</time>
      </trkpt>
      <trkpt lat="44.77358" lon="4.64027">
        <ele>763.1</ele>
        <time>2019-02-28T10:35:08Z</time>
      </trkpt>
      <trkpt lat="44.77385" lon="4.64048">
        <ele>767.85</ele>
        <time>2019-02-28T10:35:28Z</time>
      </trkpt>
      <trkpt lat="44.77393" lon="4.64074">
        <ele>763.74</ele>
        <time>2019-02-28T10:35:48Z</time>
      </trkpt>
      <trkpt lat="44.77406" lon="4.64106">
        <ele>766.85</ele>
        <time>2019-02-28T10:36:10Z</time>
      </trkpt>
      <trkpt lat="44.77413" lon="4.64142">
        <ele>760.81</ele>
        <time>2019-02-28T10:36:30Z</time>
      </trkpt>
      <trkpt lat="44.7742" lon="4.64169">
        <ele>762.73</ele>
        <time>2019-02-28T10:36:50Z</time>
      </trkpt>
      <trkpt lat="44.77419" lon="4.64195">
        <ele>762.29</ele>
        <time>2019-02-28T10:37:19Z</time>
      </trkpt>
      <trkpt lat="44.77417" lon="4.64233">
        <ele>767.55</ele>
        <time>2019-02-28T10:37:39Z</time>
      </trkpt>
      <trkpt lat="44.77414" lon="4.64272">
        <ele>762.81</ele>
        <time>2019-02-28T10:37:59Z</time>
      </trkpt>
      <trkpt lat="44.77408" lon="4.64299">
        <ele>758.8</ele>
        <time>2019-02-28T10:38:19Z</time>
      </trkpt>
      <trkpt lat="44.774" lon="4.64336">
        <ele>757.56</ele>
        <time>2019-02-28T10:38:39Z</time>
      </trkpt>
      <trkpt lat="44.77391" lon="4.64366">
        <ele>757.81</ele>
        <time>2019-02-28T10:38:59Z</time>
      </trkpt>
      <trkpt lat="44.77385" lon="4.64386">
        <ele>757.06</ele>
        <time>2019-02-28T10:39:19Z</time>
      </trkpt>
      <trkpt lat="44.77375" lon="4.6441">
        <ele>759.43</ele>
        <time>2019-02-28T10:39:39Z</time>
      </trkpt>
      <trkpt lat="44.77365" lon="4.6444">
        <ele>757.34</ele>
        <time>2019-02-28T10:39:59Z</time>
      </trkpt>
      <trkpt lat="44.77359" lon="4.64457">
        <ele>757.31</ele>
        <time>2019-02-28T10:40:19Z</time>
      </trkpt>
      <trkpt lat="44.77351" lon="4.64493">
        <ele>755.82</ele>
        <time>2019-02-28T10:40:39Z</time>
      </trkpt>
      <trkpt lat="44.77354" lon="4.6453">
        <ele>753.82</ele>
        <time>2019-02-28T10:40:59Z</time>
      </trkpt>
      <trkpt lat="44.77369" lon="4.64548">
        <ele>754.01</ele>
        <time>2019-02-28T10:41:19Z</time>
      </trkpt>
      <trkpt lat="44.77388" lon="4.6454">
        <ele>753.74</ele>
        <time>2019-02-28T10:41:39Z</time>
      </trkpt>
      <trkpt lat="44.77409" lon="4.64528">
        <ele>753.89</ele>
        <time>2019-02-28T10:41:59Z</time>
      </trkpt>
      <trkpt lat="44.77424" lon="4.6452">
        <ele>752.77</ele>
        <time>2019-02-28T10:42:19Z</time>
      </trkpt>
      <trkpt lat="44.77445" lon="4.64516">
        <ele>744.88</ele>
        <time>2019-02-28T10:43:14Z</time>
      </trkpt>
      <trkpt lat="44.77465" lon="4.64514">
        <ele>742.06</ele>
        <time>2019-02-28T10:43:34Z</time>
      </trkpt>
      <trkpt lat="44.7749" lon="4.64515">
        <ele>748.52</ele>
        <time>2019-02-28T10:43:54Z</time>
      </trkpt>
      <trkpt lat="44.7751" lon="4.64517">
        <ele>748.88</ele>
        <time>2019-02-28T10:45:22Z</time>
      </trkpt>
      <trkpt lat="44.77528" lon="4.64518">
        <ele>744.87</ele>
        <time>2019-02-28T10:46:02Z</time>
      </trkpt>
      <trkpt lat="44.77554" lon="4.64525">
        <ele>743.05</ele>
        <time>2019-02-28T10:46:22Z</time>
      </trkpt>
      <trkpt lat="44.77571" lon="4.64535">
        <ele>739.33</ele>
        <time>2019-02-28T10:47:08Z</time>
      </trkpt>
      <trkpt lat="44.77592" lon="4.64552">
        <ele>736.83</ele>
        <time>2019-02-28T10:47:32Z</time>
      </trkpt>
      <trkpt lat="44.77608" lon="4.64576">
        <ele>730.87</ele>
        <time>2019-02-28T10:48:00Z</time>
      </trkpt>
      <trkpt lat="44.77621" lon="4.646">
        <ele>732.83</ele>
        <time>2019-02-28T10:48:36Z</time>
      </trkpt>
      <trkpt lat="44.77637" lon="4.64623">
        <ele>726.52</ele>
        <time>2019-02-28T10:49:04Z</time>
      </trkpt>
      <trkpt lat="44.77641" lon="4.64659">
        <ele>726.06</ele>
        <time>2019-02-28T10:49:33Z</time>
      </trkpt>
      <trkpt lat="44.77649" lon="4.64688">
        <ele>728.13</ele>
        <time>2019-02-28T10:49:53Z</time>
      </trkpt>
      <trkpt lat="44.77664" lon="4.64717">
        <ele>731.37</ele>
        <time>2019-02-28T10:50:13Z</time>
      </trkpt>
      <trkpt lat="44.77672" lon="4.64743">
        <ele>727.01</ele>
        <time>2019-02-28T10:50:33Z</time>
      </trkpt>
      <trkpt lat="44.77677" lon="4.64776">
        <ele>725.47</ele>
        <time>2019-02-28T10:50:59Z</time>
      </trkpt>
      <trkpt lat="44.77682" lon="4.64806">
        <ele>722.57</ele>
        <time>2019-02-28T10:51:27Z</time>
      </trkpt>
      <trkpt lat="44.7769" lon="4.64841">
        <ele>729.56</ele>
        <time>2019-02-28T10:51:48Z</time>
      </trkpt>
      <trkpt lat="44.77692" lon="4.64874">
        <ele>732.82</ele>
        <time>2019-02-28T10:52:10Z</time>
      </trkpt>
      <trkpt lat="44.77684" lon="4.64904">
        <ele>722.88</ele>
        <time>2019-02-28T10:54:08Z</time>
      </trkpt>
      <trkpt lat="44.77683" lon="4.64939">
        <ele>726.56</ele>
        <time>2019-02-28T10:54:28Z</time>
      </trkpt>
      <trkpt lat="44.77677" lon="4.64967">
        <ele>716.9</ele>
        <time>2019-02-28T10:54:48Z</time>
      </trkpt>
      <trkpt lat="44.77676" lon="4.65001">
        <ele>712.83</ele>
        <time>2019-02-28T10:55:08Z</time>
      </trkpt>
      <trkpt lat="44.7767" lon="4.65031">
        <ele>708.09</ele>
        <time>2019-02-28T10:55:28Z</time>
      </trkpt>
      <trkpt lat="44.77678" lon="4.65056">
        <ele>699.6</ele>
        <time>2019-02-28T10:55:50Z</time>
      </trkpt>
      <trkpt lat="44.77699" lon="4.65083">
        <ele>702.86</ele>
        <time>2019-02-28T10:56:22Z</time>
      </trkpt>
      <trkpt lat="44.7771" lon="4.65103">
        <ele>696.47</ele>
        <time>2019-02-28T10:56:53Z</time>
      </trkpt>
      <trkpt lat="44.77731" lon="4.65115">
        <ele>692.94</ele>
        <time>2019-02-28T10:57:20Z</time>
      </trkpt>
      <trkpt lat="44.77752" lon="4.65131">
        <ele>689.95</ele>
        <time>2019-02-28T10:57:43Z</time>
      </trkpt>
      <trkpt lat="44.77766" lon="4.65138">
        <ele>688.56</ele>
        <time>2019-02-28T10:58:03Z</time>
      </trkpt>
      <trkpt lat="44.77804" lon="4.65146">
        <ele>685.8</ele>
        <time>2019-02-28T10:58:34Z</time>
      </trkpt>
      <trkpt lat="44.77818" lon="4.65153">
        <ele>683.13</ele>
        <time>2019-02-28T10:58:54Z</time>
      </trkpt>
      <trkpt lat="44.77837" lon="4.65164">
        <ele>682.08</ele>
        <time>2019-02-28T10:59:14Z</time>
      </trkpt>
      <trkpt lat="44.77854" lon="4.65165">
        <ele>680.57</ele>
        <time>2019-02-28T10:59:34Z</time>
      </trkpt>
      <trkpt lat="44.77881" lon="4.6517">
        <ele>685.05</ele>
        <time>2019-02-28T11:00:02Z</time>
      </trkpt>
      <trkpt lat="44.77901" lon="4.65185">
        <ele>683.13</ele>
        <time>2019-02-28T11:00:22Z</time>
      </trkpt>
      <trkpt lat="44.77901" lon="4.65218">
        <ele>681.13</ele>
        <time>2019-02-28T11:00:42Z</time>
      </trkpt>
      <trkpt lat="44.77907" lon="4.65248">
        <ele>680.56</ele>
        <time>2019-02-28T11:01:06Z</time>
      </trkpt>
      <trkpt lat="44.77905" lon="4.6528">
        <ele>682.09</ele>
        <time>2019-02-28T11:01:29Z</time>
      </trkpt>
      <trkpt lat="44.77902" lon="4.65308">
        <ele>665.28</ele>
        <time>2019-02-28T11:03:43Z</time>
      </trkpt>
      <trkpt lat="44.77899" lon="4.65337">
        <ele>664.89</ele>
        <time>2019-02-28T11:19:53Z</time>
      </trkpt>
      <trkpt lat="44.77896" lon="4.65373">
        <ele>664.07</ele>
        <time>2019-02-28T11:43:55Z</time>
      </trkpt>
      <trkpt lat="44.7789" lon="4.65398">
        <ele>669.27</ele>
        <time>2019-02-28T11:52:01Z</time>
      </trkpt>
      <trkpt lat="44.77884" lon="4.65434">
        <ele>663.76</ele>
        <time>2019-02-28T11:53:10Z</time>
      </trkpt>
      <trkpt lat="44.77876" lon="4.65465">
        <ele>661.7</ele>
        <time>2019-02-28T11:53:30Z</time>
      </trkpt>
      <trkpt lat="44.77863" lon="4.65491">
        <ele>665.81</ele>
        <time>2019-02-28T11:53:50Z</time>
      </trkpt>
      <trkpt lat="44.77847" lon="4.65518">
        <ele>655.58</ele>
        <time>2019-02-28T11:54:10Z</time>
      </trkpt>
      <trkpt lat="44.77829" lon="4.65537">
        <ele>659.68</ele>
        <time>2019-02-28T11:54:30Z</time>
      </trkpt>
      <trkpt lat="44.77815" lon="4.65557">
        <ele>654.42</ele>
        <time>2019-02-28T11:54:50Z</time>
      </trkpt>
      <trkpt lat="44.77797" lon="4.65579">
        <ele>652.83</ele>
        <time>2019-02-28T11:55:10Z</time>
      </trkpt>
      <trkpt lat="44.77803" lon="4.65604">
        <ele>647.58</ele>
        <time>2019-02-28T11:55:30Z</time>
      </trkpt>
      <trkpt lat="44.77825" lon="4.656">
        <ele>639.75</ele>
        <time>2019-02-28T11:55:50Z</time>
      </trkpt>
      <trkpt lat="44.77846" lon="4.65596">
        <ele>641.09</ele>
        <time>2019-02-28T11:56:10Z</time>
      </trkpt>
      <trkpt lat="44.77862" lon="4.65589">
        <ele>644.83</ele>
      </trkpt>
      <trkpt lat="44.7789" lon="4.6558">
        <ele>641.88</ele>
      </trkpt>
      <trkpt lat="44.77908" lon="4.6557">
        <ele>639.14</ele>
      </trkpt>
      <trkpt lat="44.77933" lon="4.65571">
        <ele>640</ele>
      </trkpt>
      <trkpt lat="44.77957" lon="4.6557">
        <ele>636.91</ele>
      </trkpt>
      <trkpt lat="44.77972" lon="4.65575">
        <ele>629.09</ele>
      </trkpt>
      <trkpt lat="44.77995" lon="4.65587">
        <ele>626.13</ele>
      </trkpt>
      <trkpt lat="44.78022" lon="4.65604">
        <ele>629.52</ele>
      </trkpt>
      <trkpt lat="44.78034" lon="4.65624">
        <ele>627.84</ele>
      </trkpt>
      <trkpt lat="44.78025" lon="4.65639">
        <ele>626.82</ele>
      </trkpt>
      <trkpt lat="44.78009" lon="4.65662">
        <ele>627.76</ele>
      </trkpt>
      <trkpt lat="44.77995" lon="4.65683">
        <ele>627.81</ele>
      </trkpt>
      <trkpt lat="44.77984" lon="4.65708">
        <ele>625.64</ele>
      </trkpt>
      <trkpt lat="44.77973" lon="4.65736">
        <ele>616.84</ele>
      </trkpt>
      <trkpt lat="44.77961" lon="4.65768">
        <ele>603.73</ele>
      </trkpt>
      <trkpt lat="44.77952" lon="4.65794">
        <ele>604.08</ele>
      </trkpt>
      <trkpt lat="44.77944" lon="4.65825">
        <ele>599.58</ele>
      </trkpt>
      <trkpt lat="44.77935" lon="4.65855">
        <ele>595.85</ele>
      </trkpt>
      <trkpt lat="44.77926" lon="4.65884">
        <ele>596.84</ele>
      </trkpt>
      <trkpt lat="44.77919" lon="4.6591">
        <ele>594.89</ele>
      </trkpt>
      <trkpt lat="44.77916" lon="4.65941">
        <ele>594.64</ele>
      </trkpt>
      <trkpt lat="44.77912" lon="4.65973">
        <ele>586.79</ele>
      </trkpt>
      <trkpt lat="44.77901" lon="4.65998">
        <ele>583.84</ele>
      </trkpt>
      <trkpt lat="44.77891" lon="4.66027">
        <ele>583.84</ele>
      </trkpt>
      <trkpt lat="44.77879" lon="4.66046">
        <ele>582.84</ele>
      </trkpt>
      <trkpt lat="44.77863" lon="4.66075">
        <ele>580.84</ele>
      </trkpt>
      <trkpt lat="44.77849" lon="4.661">
        <ele>578.79</ele>
      </trkpt>
      <trkpt lat="44.77836" lon="4.66123">
        <ele>574.77</ele>
      </trkpt>
      <trkpt lat="44.7782" lon="4.66152">
        <ele>575.17</ele>
      </trkpt>
      <trkpt lat="44.77806" lon="4.66174">
        <ele>572.4</ele>
      </trkpt>
      <trkpt lat="44.77792" lon="4.66196">
        <ele>572.66</ele>
      </trkpt>
      <trkpt lat="44.77785" lon="4.66228">
        <ele>564.59</ele>
      </trkpt>
      <trkpt lat="44.77775" lon="4.66257">
        <ele>565.86</ele>
      </trkpt>
      <trkpt lat="44.77769" lon="4.66284">
        <ele>562.11</ele>
      </trkpt>
      <trkpt lat="44.77782" lon="4.66289">
        <ele>566.91</ele>
      </trkpt>
      <trkpt lat="44.77798" lon="4.66291">
        <ele>562.2</ele>
      </trkpt>
      <trkpt lat="44.77818" lon="4.66295">
        <ele>557.66</ele>
      </trkpt>
      <trkpt lat="44.77843" lon="4.66296">
        <ele>554.92</ele>
      </trkpt>
      <trkpt lat="44.77858" lon="4.66308">
        <ele>554.4</ele>
      </trkpt>
      <trkpt lat="44.77883" lon="4.66327">
        <ele>548.35</ele>
      </trkpt>
      <trkpt lat="44.77899" lon="4.66339">
        <ele>550.82</ele>
      </trkpt>
      <trkpt lat="44.77911" lon="4.66347">
        <ele>548.86</ele>
      </trkpt>
      <trkpt lat="44.77927" lon="4.66363">
        <ele>543.91</ele>
      </trkpt>
      <trkpt lat="44.77937" lon="4.6639">
        <ele>542.9</ele>
      </trkpt>
      <trkpt lat="44.77955" lon="4.6642">
        <ele>547.78</ele>
      </trkpt>
      <trkpt lat="44.7797" lon="4.66432">
        <ele>544.59</ele>
      </trkpt>
      <trkpt lat="44.77997" lon="4.6643">
        <ele>544.16</ele>
      </trkpt>
      <trkpt lat="44.78022" lon="4.66433">
        <ele>534.97</ele>
      </trkpt>
      <trkpt lat="44.78048" lon="4.66443">
        <ele>539.83</ele>
      </trkpt>
      <trkpt lat="44.78064" lon="4.66447">
        <ele>542.85</ele>
      </trkpt>
      <trkpt lat="44.78086" lon="4.66448">
        <ele>543.53</ele>
      </trkpt>
      <trkpt lat="44.78108" lon="4.66456">
        <ele>542.15</ele>
      </trkpt>
      <trkpt lat="44.7813" lon="4.66462">
        <ele>531.18</ele>
      </trkpt>
      <trkpt lat="44.78145" lon="4.6647">
        <ele>543.76</ele>
      </trkpt>
      <trkpt lat="44.78158" lon="4.66478">
        <ele>555.17</ele>
      </trkpt>
      <trkpt lat="44.78161" lon="4.66497">
        <ele>549.41</ele>
      </trkpt>
      <trkpt lat="44.78169" lon="4.66529">
        <ele>546.84</ele>
      </trkpt>
      <trkpt lat="44.78171" lon="4.66562">
        <ele>557.09</ele>
      </trkpt>
      <trkpt lat="44.78167" lon="4.66603">
        <ele>551.1</ele>
      </trkpt>
      <trkpt lat="44.78171" lon="4.66638">
        <ele>548.78</ele>
      </trkpt>
      <trkpt lat="44.78189" lon="4.66658">
        <ele>548.54</ele>
      </trkpt>
      <trkpt lat="44.78211" lon="4.66672">
        <ele>543.85</ele>
      </trkpt>
      <trkpt lat="44.78221" lon="4.66693">
        <ele>547.08</ele>
      </trkpt>
      <trkpt lat="44.78231" lon="4.66709">
        <ele>542.48</ele>
      </trkpt>
      <trkpt lat="44.78249" lon="4.66713">
        <ele>544.81</ele>
      </trkpt>
      <trkpt lat="44.78264" lon="4.66717">
        <ele>543.12</ele>
      </trkpt>
      <trkpt lat="44.78283" lon="4.66728">
        <ele>542.83</ele>
      </trkpt>
      <trkpt lat="44.78294" lon="4.6674">
        <ele>541.05</ele>
      </trkpt>
      <trkpt lat="44.7831" lon="4.66742">
        <ele>545.79</ele>
      </trkpt>
      <trkpt lat="44.78315" lon="4.66761">
        <ele>549.72</ele>
      </trkpt>
      <trkpt lat="44.78329" lon="4.66782">
        <ele>555.86</ele>
      </trkpt>
      <trkpt lat="44.78337" lon="4.66801">
        <ele>548.87</ele>
      </trkpt>
      <trkpt lat="44.78348" lon="4.66823">
        <ele>545.78</ele>
      </trkpt>
      <trkpt lat="44.78346" lon="4.66847">
        <ele>546.07</ele>
      </trkpt>
      <trkpt lat="44.78351" lon="4.66865">
        <ele>551.84</ele>
      </trkpt>
      <trkpt lat="44.78349" lon="4.66886">
        <ele>548.92</ele>
      </trkpt>
      <trkpt lat="44.78359" lon="4.66909">
        <ele>554.84</ele>
      </trkpt>
      <trkpt lat="44.78367" lon="4.66924">
        <ele>558.73</ele>
      </trkpt>
      <trkpt lat="44.78379" lon="4.66933">
        <ele>558.84</ele>
      </trkpt>
      <trkpt lat="44.78388" lon="4.66948">
        <ele>558.92</ele>
      </trkpt>
      <trkpt lat="44.784" lon="4.66965">
        <ele>563.73</ele>
      </trkpt>
      <trkpt lat="44.78421" lon="4.66977">
        <ele>568.18</ele>
      </trkpt>
      <trkpt lat="44.78442" lon="4.66989">
        <ele>563.85</ele>
      </trkpt>
      <trkpt lat="44.78459" lon="4.66997">
        <ele>565.54</ele>
      </trkpt>
      <trkpt lat="44.78474" lon="4.67007">
        <ele>569.88</ele>
      </trkpt>
      <trkpt lat="44.78493" lon="4.67016">
        <ele>572.85</ele>
      </trkpt>
      <trkpt lat="44.7851" lon="4.67024">
        <ele>575.61</ele>
      </trkpt>
      <trkpt lat="44.7853" lon="4.67032">
        <ele>579.92</ele>
      </trkpt>
      <trkpt lat="44.78549" lon="4.67038">
        <ele>580.85</ele>
      </trkpt>
      <trkpt lat="44.78573" lon="4.67037">
        <ele>576.97</ele>
      </trkpt>
      <trkpt lat="44.78587" lon="4.67028">
        <ele>581.91</ele>
      </trkpt>
      <trkpt lat="44.78601" lon="4.67022">
        <ele>582.79</ele>
      </trkpt>
      <trkpt lat="44.7862" lon="4.67025">
        <ele>588.73</ele>
      </trkpt>
      <trkpt lat="44.7864" lon="4.67033">
        <ele>598.4</ele>
      </trkpt>
      <trkpt lat="44.7865" lon="4.67047">
        <ele>600.65</ele>
      </trkpt>
      <trkpt lat="44.7866" lon="4.67065">
        <ele>599.35</ele>
      </trkpt>
      <trkpt lat="44.78671" lon="4.67084">
        <ele>604.85</ele>
      </trkpt>
      <trkpt lat="44.78679" lon="4.67107">
        <ele>601.82</ele>
      </trkpt>
      <trkpt lat="44.78691" lon="4.67128">
        <ele>600.92</ele>
      </trkpt>
      <trkpt lat="44.78705" lon="4.67148">
        <ele>603.79</ele>
      </trkpt>
      <trkpt lat="44.78719" lon="4.67161">
        <ele>610.84</ele>
      </trkpt>
      <trkpt lat="44.78723" lon="4.6718">
        <ele>614.59</ele>
      </trkpt>
      <trkpt lat="44.78729" lon="4.67206">
        <ele>615.09</ele>
      </trkpt>
      <trkpt lat="44.78741" lon="4.67234">
        <ele>615.6</ele>
      </trkpt>
      <trkpt lat="44.78752" lon="4.67258">
        <ele>615.73</ele>
      </trkpt>
      <trkpt lat="44.78756" lon="4.67282">
        <ele>614.9</ele>
      </trkpt>
      <trkpt lat="44.78766" lon="4.67309">
        <ele>615.79</ele>
      </trkpt>
      <trkpt lat="44.78779" lon="4.67328">
        <ele>621.76</ele>
      </trkpt>
      <trkpt lat="44.78794" lon="4.67336">
        <ele>622.04</ele>
      </trkpt>
      <trkpt lat="44.78807" lon="4.6735">
        <ele>629.61</ele>
      </trkpt>
      <trkpt lat="44.7881" lon="4.6737">
        <ele>625.86</ele>
      </trkpt>
      <trkpt lat="44.7882" lon="4.67391">
        <ele>626.09</ele>
      </trkpt>
      <trkpt lat="44.78835" lon="4.6741">
        <ele>626.11</ele>
      </trkpt>
      <trkpt lat="44.7886" lon="4.67474">
        <ele>630</ele>
      </trkpt>
      <trkpt lat="44.78881" lon="4.67502">
        <ele>625.9</ele>
      </trkpt>
      <trkpt lat="44.78889" lon="4.67536">
        <ele>625.6</ele>
      </trkpt>
      <trkpt lat="44.78875" lon="4.67652">
        <ele>617.4</ele>
      </trkpt>
      <trkpt lat="44.78872" lon="4.67716">
        <ele>612.6</ele>
      </trkpt>
      <trkpt lat="44.78892" lon="4.67821">
        <ele>607.1</ele>
      </trkpt>
      <trkpt lat="44.78889" lon="4.67869">
        <ele>600.3</ele>
      </trkpt>
      <trkpt lat="44.7888" lon="4.67882">
        <ele>599</ele>
      </trkpt>
      <trkpt lat="44.78859" lon="4.67889">
        <ele>596.8</ele>
      </trkpt>
      <trkpt lat="44.78845" lon="4.67914">
        <ele>593.2</ele>
      </trkpt>
      <trkpt lat="44.7884" lon="4.67934">
        <ele>591.7</ele>
      </trkpt>
      <trkpt lat="44.78848" lon="4.67967">
        <ele>591.7</ele>
      </trkpt>
      <trkpt lat="44.78855" lon="4.68017">
        <ele>587.6</ele>
      </trkpt>
      <trkpt lat="44.78887" lon="4.68161">
        <ele>579.8</ele>
      </trkpt>
      <trkpt lat="44.78891" lon="4.68195">
        <ele>574.2</ele>
      </trkpt>
      <trkpt lat="44.78884" lon="4.68225">
        <ele>572.5</ele>
      </trkpt>
      <trkpt lat="44.78895" lon="4.68232">
        <ele>571.5</ele>
      </trkpt>
      <trkpt lat="44.78911" lon="4.68247">
        <ele>568.5</ele>
      </trkpt>
      <trkpt lat="44.78957" lon="4.68313">
        <ele>562.1</ele>
      </trkpt>
      <trkpt lat="44.78969" lon="4.68327">
        <ele>561.8</ele>
      </trkpt>
      <trkpt lat="44.79004" lon="4.68338">
        <ele>559.3</ele>
      </trkpt>
      <trkpt lat="44.79029" lon="4.68344">
        <ele>557.9</ele>
      </trkpt>
      <trkpt lat="44.79068" lon="4.68381">
        <ele>556.3</ele>
      </trkpt>
      <trkpt lat="44.79075" lon="4.68384">
        <ele>556.1</ele>
      </trkpt>
      <trkpt lat="44.79087" lon="4.68383">
        <ele>557.7</ele>
      </trkpt>
      <trkpt lat="44.79096" lon="4.68383">
        <ele>557.9</ele>
      </trkpt>
      <trkpt lat="44.79124" lon="4.68378">
        <ele>559</ele>
      </trkpt>
      <trkpt lat="44.79138" lon="4.6838">
        <ele>559.3</ele>
      </trkpt>
      <trkpt lat="44.79158" lon="4.68376">
        <ele>560.1</ele>
      </trkpt>
      <trkpt lat="44.79245" lon="4.6834">
        <ele>569.8</ele>
      </trkpt>
      <trkpt lat="44.79269" lon="4.68333">
        <ele>570.7</ele>
      </trkpt>
      <trkpt lat="44.79276" lon="4.68319">
        <ele>570.3</ele>
      </trkpt>
      <trkpt lat="44.79279" lon="4.68319">
        <ele>570.1</ele>
      </trkpt>
      <trkpt lat="44.7931" lon="4.68328">
        <ele>566.9</ele>
      </trkpt>
      <trkpt lat="44.79313" lon="4.68331">
        <ele>566.4</ele>
      </trkpt>
      <trkpt lat="44.79313" lon="4.68331">
        <ele>566</ele>
      </trkpt>
      <trkpt lat="44.79312" lon="4.68345">
        <ele>563</ele>
      </trkpt>
      <trkpt lat="44.79309" lon="4.68358">
        <ele>562.9</ele>
      </trkpt>
      <trkpt lat="44.79298" lon="4.68374">
        <ele>562.8</ele>
      </trkpt>
      <trkpt lat="44.79295" lon="4.68439">
        <ele>556.2</ele>
      </trkpt>
      <trkpt lat="44.79296" lon="4.68463">
        <ele>555.3</ele>
      </trkpt>
      <trkpt lat="44.79305" lon="4.68488">
        <ele>554.2</ele>
      </trkpt>
      <trkpt lat="44.79343" lon="4.68552">
        <ele>547.5</ele>
      </trkpt>
      <trkpt lat="44.79346" lon="4.68568">
        <ele>548.1</ele>
      </trkpt>
      <trkpt lat="44.79343" lon="4.68582">
        <ele>549.2</ele>
      </trkpt>
      <trkpt lat="44.79342" lon="4.68594">
        <ele>550.2</ele>
      </trkpt>
      <trkpt lat="44.79347" lon="4.6859">
        <ele>550</ele>
      </trkpt>
      <trkpt lat="44.79351" lon="4.68566">
        <ele>547.6</ele>
      </trkpt>
      <trkpt lat="44.79351" lon="4.68557">
        <ele>547.2</ele>
      </trkpt>
      <trkpt lat="44.79348" lon="4.68543">
        <ele>547.1</ele>
      </trkpt>
    </trkseg>
  </trk>
</gpx>